ソチ の空港の天気 - METARとTAF

ソチ空港 ( URSS / AER ) - ロシア ソチ
飛行場実況気象(Metar)
観測時間01/20 20:30 MSK (01/20 17:30 UTC)
風向・風速西 3m/s
視程10km以上
天気現象
全天の8割程度の雲 雲底高度 430m
全天を覆う雲 雲底高度 910m
気温6℃
湿度93%
気圧1027hPa
METARURSS 201730Z 27003MPS 9999 BKN014 OVC030CB 06/05 Q1027 WS ALL RWY R02/290055 R06/290055 NOSIG RMK R06/28004MPS MT OBSC QFE769
過去の天気等 Google飛行場航空写真 Wunderground天気予報

過去48時間のMETAR

飛行場予報(TAF)
発表時間: 1/20 19:57 MSK (1/20 16:57 UTC)
予報対象時間: 20日21時 MSK ~ 21日21時 MSK
風向・風速西 6m/s 瞬間風速 11m/s
視程5,000m
天気現象弱いしゅう雨
全天の8割程度の雲 雲底高度 300m
全天の8割程度の積乱雲 雲底高度 610m
全天を覆う雲 雲底高度 3,050m
20日21時 MSK ~ 21日12時 MSK に一時的に
風向・風速不定 8m/s 瞬間風速 13m/s
視程1,200m
天気現象雷雨あられ
全天の8割程度の雲 雲底高度 180m
全天の8割程度の積乱雲 雲底高度 610m
全天を覆う雲 雲底高度 3,050m
21日12時 MSK から
風向・風速西 5m/s 瞬間風速 10m/s
視程10km以上
全天の4割程度の積乱雲 雲底高度 610m
全天の8割程度の雲 雲底高度 3,050m
21日14時 MSK ~ 21日18時 MSK に一時的に
天気現象弱いしゅう雪雨
21日18時 MSK ~ 21日19時 MSK に徐々に
風向・風速北東 6m/s
全天の8割程度の雲 雲底高度 300m
全天の8割程度の積乱雲 雲底高度 610m
全天を覆う雲 雲底高度 3,050m
21日18時 MSK ~ 21日21時 MSK に一時的に
風向・風速不定 7m/s 瞬間風速 12m/s
視程1,000m
天気現象雷雪
全天の8割程度の雲 雲底高度 150m
全天の8割程度の積乱雲 雲底高度 610m
全天を覆う雲 雲底高度 3,050m
TAF URSS 201657Z 2018/2118 28006G11MPS 5000 -SHRA BKN010 BKN020CB OVC100
TEMPO 2018/2109 VRB08G13MPS 1200 TSRAGS BKN006 BKN020CB OVC100
FM210900 28005G10MPS 9999 SCT020CB BKN100
TEMPO 2111/2115 -SHSNRA
BECMG 2115/2116 05006MPS BKN010 BKN020CB OVC100
TEMPO 2115/2118 VRB07G12MPS 1000 TSSN BKN005 BKN020CB OVC100